sensor_id;sensor_type;location;lat;lon;timestamp;pressure;altitude;pressure_sealevel;temperature;humidity
69982;BME280;57319;56.274;43.980;2023-05-19T00:01:07;100004.28;;;14.86;50.17
69982;BME280;57319;56.274;43.980;2023-05-19T00:03:34;100006.06;;;14.82;50.27
69982;BME280;57319;56.274;43.980;2023-05-19T00:06:05;99999.31;;;14.76;50.31
69982;BME280;57319;56.274;43.980;2023-05-19T00:08:33;99997.69;;;14.72;50.34
69982;BME280;57319;56.274;43.980;2023-05-19T00:10:59;99999.59;;;14.67;50.61
69982;BME280;57319;56.274;43.980;2023-05-19T00:13:26;99997.97;;;14.63;50.91
69982;BME280;57319;56.274;43.980;2023-05-19T00:15:52;99998.91;;;14.59;50.72
69982;BME280;57319;56.274;43.980;2023-05-19T00:18:18;99996.34;;;14.56;50.61
69982;BME280;57319;56.274;43.980;2023-05-19T00:20:44;99999.06;;;14.51;50.63
69982;BME280;57319;56.274;43.980;2023-05-19T00:23:10;99998.25;;;14.49;50.51
69982;BME280;57319;56.274;43.980;2023-05-19T00:25:36;99995.69;;;14.48;50.47
69982;BME280;57319;56.274;43.980;2023-05-19T00:28:02;99996.66;;;14.43;50.22
69982;BME280;57319;56.274;43.980;2023-05-19T00:30:28;99994.19;;;14.39;49.83
69982;BME280;57319;56.274;43.980;2023-05-19T00:32:54;99994.31;;;14.34;49.61
69982;BME280;57319;56.274;43.980;2023-05-19T00:35:22;99997.88;;;14.30;49.54
69982;BME280;57319;56.274;43.980;2023-05-19T00:37:48;99995.34;;;14.27;49.98
69982;BME280;57319;56.274;43.980;2023-05-19T00:40:13;100002.31;;;14.25;49.99
69982;BME280;57319;56.274;43.980;2023-05-19T00:42:40;99994.63;;;14.22;50.89
69982;BME280;57319;56.274;43.980;2023-05-19T00:45:06;99999.81;;;14.20;51.30
69982;BME280;57319;56.274;43.980;2023-05-19T00:47:32;99984.31;;;14.19;49.99
69982;BME280;57319;56.274;43.980;2023-05-19T00:49:58;99993.75;;;14.21;50.73
69982;BME280;57319;56.274;43.980;2023-05-19T00:52:25;100000.59;;;14.24;50.46
69982;BME280;57319;56.274;43.980;2023-05-19T00:54:52;99991.03;;;14.28;49.79
69982;BME280;57319;56.274;43.980;2023-05-19T00:57:18;99993.50;;;14.32;49.24
69982;BME280;57319;56.274;43.980;2023-05-19T00:59:47;99989.97;;;14.35;47.26
69982;BME280;57319;56.274;43.980;2023-05-19T01:02:12;99996.75;;;14.40;46.28
69982;BME280;57319;56.274;43.980;2023-05-19T01:04:39;99990.53;;;14.48;45.33
69982;BME280;57319;56.274;43.980;2023-05-19T01:07:06;99994.59;;;14.58;44.49
69982;BME280;57319;56.274;43.980;2023-05-19T01:09:32;99998.75;;;14.65;44.68
69982;BME280;57319;56.274;43.980;2023-05-19T01:11:59;99997.66;;;14.74;44.44
69982;BME280;57319;56.274;43.980;2023-05-19T01:14:25;100000.06;;;14.82;44.05
69982;BME280;57319;56.274;43.980;2023-05-19T01:17:06;99993.75;;;14.92;43.82
69982;BME280;57319;56.274;43.980;2023-05-19T01:25:15;99996.00;;;15.04;43.83
69982;BME280;57319;56.274;43.980;2023-05-19T01:30:26;100003.69;;;15.07;44.64
69982;BME280;57319;56.274;43.980;2023-05-19T01:32:58;100009.84;;;15.03;45.42
69982;BME280;57319;56.274;43.980;2023-05-19T01:35:25;100003.00;;;15.01;45.34
69982;BME280;57319;56.274;43.980;2023-05-19T01:37:55;100003.94;;;14.98;45.61
69982;BME280;57319;56.274;43.980;2023-05-19T01:40:22;99997.84;;;15.01;45.94
69982;BME280;57319;56.274;43.980;2023-05-19T01:42:50;99997.00;;;15.00;46.70
69982;BME280;57319;56.274;43.980;2023-05-19T01:45:17;100001.34;;;14.98;46.64
69982;BME280;57319;56.274;43.980;2023-05-19T01:47:46;99993.66;;;14.95;46.45
69982;BME280;57319;56.274;43.980;2023-05-19T01:50:11;99996.22;;;14.97;46.39
69982;BME280;57319;56.274;43.980;2023-05-19T01:52:37;99990.97;;;14.98;46.55
69982;BME280;57319;56.274;43.980;2023-05-19T01:55:03;99995.25;;;15.01;48.08
69982;BME280;57319;56.274;43.980;2023-05-19T02:00:11;99992.47;;;15.07;46.82
69982;BME280;57319;56.274;43.980;2023-05-19T02:08:42;99985.75;;;15.31;49.11
69982;BME280;57319;56.274;43.980;2023-05-19T02:11:21;99990.78;;;15.36;49.44
69982;BME280;57319;56.274;43.980;2023-05-19T02:13:49;99993.28;;;15.40;48.43
69982;BME280;57319;56.274;43.980;2023-05-19T02:16:18;99987.09;;;15.44;49.22
69982;BME280;57319;56.274;43.980;2023-05-19T02:18:46;99986.06;;;15.50;49.45
69982;BME280;57319;56.274;43.980;2023-05-19T02:21:16;99986.84;;;15.54;49.59
69982;BME280;57319;56.274;43.980;2023-05-19T02:23:42;99984.09;;;15.58;49.54
69982;BME280;57319;56.274;43.980;2023-05-19T02:26:07;99984.78;;;15.65;49.60
69982;BME280;57319;56.274;43.980;2023-05-19T02:28:34;99981.13;;;15.71;49.54
69982;BME280;57319;56.274;43.980;2023-05-19T02:31:01;99979.25;;;15.76;49.28
69982;BME280;57319;56.274;43.980;2023-05-19T02:33:27;99988.69;;;15.78;48.87
69982;BME280;57319;56.274;43.980;2023-05-19T02:35:55;99978.19;;;15.83;48.53
69982;BME280;57319;56.274;43.980;2023-05-19T02:38:21;99982.41;;;15.87;48.30
69982;BME280;57319;56.274;43.980;2023-05-19T02:40:47;99989.97;;;15.93;48.04
69982;BME280;57319;56.274;43.980;2023-05-19T02:43:12;99982.97;;;15.97;47.92
69982;BME280;57319;56.274;43.980;2023-05-19T02:45:38;99983.56;;;16.05;47.86
69982;BME280;57319;56.274;43.980;2023-05-19T02:48:04;99981.69;;;16.10;48.18
69982;BME280;57319;56.274;43.980;2023-05-19T02:50:29;99978.81;;;16.18;47.88
69982;BME280;57319;56.274;43.980;2023-05-19T02:52:55;99988.13;;;16.25;47.66
69982;BME280;57319;56.274;43.980;2023-05-19T02:55:21;99984.44;;;16.33;47.19
69982;BME280;57319;56.274;43.980;2023-05-19T02:57:46;99989.28;;;16.43;45.34
69982;BME280;57319;56.274;43.980;2023-05-19T03:00:12;99989.75;;;16.55;45.04
69982;BME280;57319;56.274;43.980;2023-05-19T03:02:38;99982.56;;;16.63;44.65
69982;BME280;57319;56.274;43.980;2023-05-19T03:05:04;99984.97;;;16.69;44.35
69982;BME280;57319;56.274;43.980;2023-05-19T03:07:31;99977.94;;;16.71;43.64
69982;BME280;57319;56.274;43.980;2023-05-19T03:09:58;99975.16;;;16.77;43.83
69982;BME280;57319;56.274;43.980;2023-05-19T03:12:23;99985.38;;;16.82;44.32
69982;BME280;57319;56.274;43.980;2023-05-19T03:14:49;99982.59;;;16.87;43.98
69982;BME280;57319;56.274;43.980;2023-05-19T03:17:15;99985.91;;;16.92;43.93
69982;BME280;57319;56.274;43.980;2023-05-19T03:19:41;99984.00;;;16.97;44.67
69982;BME280;57319;56.274;43.980;2023-05-19T03:22:06;99982.13;;;17.01;43.43
69982;BME280;57319;56.274;43.980;2023-05-19T03:24:32;99984.72;;;17.02;43.33
69982;BME280;57319;56.274;43.980;2023-05-19T03:26:58;99974.19;;;17.05;43.98
69982;BME280;57319;56.274;43.980;2023-05-19T03:29:24;99978.38;;;17.09;44.31
69982;BME280;57319;56.274;43.980;2023-05-19T03:31:49;99981.66;;;17.15;43.61
69982;BME280;57319;56.274;43.980;2023-05-19T03:34:16;99977.31;;;17.15;43.69
69982;BME280;57319;56.274;43.980;2023-05-19T03:36:42;99969.31;;;17.20;43.65
69982;BME280;57319;56.274;43.980;2023-05-19T03:39:09;99979.56;;;17.24;43.50
69982;BME280;57319;56.274;43.980;2023-05-19T03:41:35;99979.41;;;17.29;43.69
69982;BME280;57319;56.274;43.980;2023-05-19T03:44:01;99979.97;;;17.37;44.67
69982;BME280;57319;56.274;43.980;2023-05-19T03:46:26;99978.03;;;17.42;44.80
69982;BME280;57319;56.274;43.980;2023-05-19T03:48:52;99976.22;;;17.44;45.27
69982;BME280;57319;56.274;43.980;2023-05-19T03:51:18;99972.59;;;17.49;45.92
69982;BME280;57319;56.274;43.980;2023-05-19T03:53:43;99981.88;;;17.56;45.88
69982;BME280;57319;56.274;43.980;2023-05-19T03:56:10;99977.25;;;17.62;46.10
69982;BME280;57319;56.274;43.980;2023-05-19T03:58:38;99973.63;;;17.67;46.40
69982;BME280;57319;56.274;43.980;2023-05-19T04:01:07;99982.13;;;17.72;46.23
69982;BME280;57319;56.274;43.980;2023-05-19T04:03:33;99980.13;;;17.78;46.58
69982;BME280;57319;56.274;43.980;2023-05-19T04:05:59;99980.81;;;17.84;47.05
69982;BME280;57319;56.274;43.980;2023-05-19T04:08:24;99983.28;;;17.87;46.58
69982;BME280;57319;56.274;43.980;2023-05-19T04:10:50;99987.47;;;17.91;47.36
69982;BME280;57319;56.274;43.980;2023-05-19T04:13:16;99984.03;;;17.90;47.09
69982;BME280;57319;56.274;43.980;2023-05-19T04:15:42;99985.56;;;17.96;47.07
69982;BME280;57319;56.274;43.980;2023-05-19T04:18:07;99988.03;;;17.99;47.42
69982;BME280;57319;56.274;43.980;2023-05-19T04:20:33;99992.28;;;18.02;47.11
69982;BME280;57319;56.274;43.980;2023-05-19T04:22:59;99992.22;;;18.03;46.86
69982;BME280;57319;56.274;43.980;2023-05-19T04:25:24;99981.44;;;18.12;46.84
69982;BME280;57319;56.274;43.980;2023-05-19T04:27:52;99982.28;;;18.13;46.80
69982;BME280;57319;56.274;43.980;2023-05-19T04:30:18;99976.09;;;18.16;46.72
69982;BME280;57319;56.274;43.980;2023-05-19T04:32:47;99985.63;;;18.17;46.63
69982;BME280;57319;56.274;43.980;2023-05-19T04:35:16;99983.69;;;18.22;46.18
69982;BME280;57319;56.274;43.980;2023-05-19T04:37:43;99976.50;;;18.27;46.45
69982;BME280;57319;56.274;43.980;2023-05-19T04:40:11;99976.13;;;18.36;46.26
69982;BME280;57319;56.274;43.980;2023-05-19T04:42:37;99972.41;;;18.42;45.84
69982;BME280;57319;56.274;43.980;2023-05-19T04:45:06;99977.38;;;18.48;45.45
69982;BME280;57319;56.274;43.980;2023-05-19T04:47:34;99971.13;;;18.52;44.95
69982;BME280;57319;56.274;43.980;2023-05-19T04:50:03;99968.97;;;18.62;45.00
69982;BME280;57319;56.274;43.980;2023-05-19T04:52:29;99968.53;;;18.73;44.92
69982;BME280;57319;56.274;43.980;2023-05-19T04:54:55;99963.81;;;18.81;44.38
69982;BME280;57319;56.274;43.980;2023-05-19T04:57:21;99958.31;;;18.87;43.71
69982;BME280;57319;56.274;43.980;2023-05-19T04:59:46;99957.88;;;18.98;44.25
69982;BME280;57319;56.274;43.980;2023-05-19T05:02:12;99957.63;;;19.04;43.40
69982;BME280;57319;56.274;43.980;2023-05-19T05:04:38;99958.91;;;19.14;43.12
69982;BME280;57319;56.274;43.980;2023-05-19T05:07:07;99961.84;;;19.26;43.35
69982;BME280;57319;56.274;43.980;2023-05-19T05:09:33;99965.13;;;19.31;43.57
69982;BME280;57319;56.274;43.980;2023-05-19T05:11:59;99962.16;;;19.39;43.28
69982;BME280;57319;56.274;43.980;2023-05-19T05:14:25;99968.13;;;19.41;43.53
69982;BME280;57319;56.274;43.980;2023-05-19T05:16:51;99964.47;;;19.45;44.15
69982;BME280;57319;56.274;43.980;2023-05-19T05:19:17;99962.44;;;19.52;44.48
69982;BME280;57319;56.274;43.980;2023-05-19T05:21:43;99962.28;;;19.55;44.04
69982;BME280;57319;56.274;43.980;2023-05-19T05:24:09;99962.00;;;19.61;44.07
69982;BME280;57319;56.274;43.980;2023-05-19T05:26:35;99968.69;;;19.66;44.25
69982;BME280;57319;56.274;43.980;2023-05-19T05:29:02;99964.03;;;19.73;44.28
69982;BME280;57319;56.274;43.980;2023-05-19T05:31:28;99971.66;;;19.78;43.96
69982;BME280;57319;56.274;43.980;2023-05-19T05:33:54;99977.31;;;19.88;43.68
69982;BME280;57319;56.274;43.980;2023-05-19T05:36:20;99975.56;;;19.88;42.84
69982;BME280;57319;56.274;43.980;2023-05-19T05:38:45;99973.63;;;19.92;42.72
69982;BME280;57319;56.274;43.980;2023-05-19T05:41:11;99962.66;;;20.03;42.55
69982;BME280;57319;56.274;43.980;2023-05-19T05:43:37;99963.13;;;20.11;42.67
69982;BME280;57319;56.274;43.980;2023-05-19T05:46:03;99971.69;;;20.14;42.68
69982;BME280;57319;56.274;43.980;2023-05-19T05:48:28;99978.38;;;20.20;42.56
69982;BME280;57319;56.274;43.980;2023-05-19T05:50:55;99970.16;;;20.28;42.13
69982;BME280;57319;56.274;43.980;2023-05-19T05:53:24;99968.59;;;20.41;41.55
69982;BME280;57319;56.274;43.980;2023-05-19T05:55:50;99962.75;;;20.54;41.21
69982;BME280;57319;56.274;43.980;2023-05-19T05:58:17;99977.72;;;20.69;41.60
69982;BME280;57319;56.274;43.980;2023-05-19T06:00:45;99967.38;;;20.83;41.58
69982;BME280;57319;56.274;43.980;2023-05-19T06:03:12;99969.25;;;20.97;40.81
69982;BME280;57319;56.274;43.980;2023-05-19T06:05:38;99962.78;;;21.05;40.07
69982;BME280;57319;56.274;43.980;2023-05-19T06:08:04;99961.19;;;21.18;40.72
69982;BME280;57319;56.274;43.980;2023-05-19T06:10:30;99959.69;;;21.30;40.35
69982;BME280;57319;56.274;43.980;2023-05-19T06:12:56;99964.50;;;21.22;40.48
69982;BME280;57319;56.274;43.980;2023-05-19T06:15:22;99972.16;;;21.09;40.58
69982;BME280;57319;56.274;43.980;2023-05-19T06:17:48;99968.34;;;20.98;40.57
69982;BME280;57319;56.274;43.980;2023-05-19T06:20:13;99967.81;;;20.92;41.13
69982;BME280;57319;56.274;43.980;2023-05-19T06:22:39;99972.22;;;20.91;41.11
69982;BME280;57319;56.274;43.980;2023-05-19T06:25:05;99972.53;;;20.85;41.31
69982;BME280;57319;56.274;43.980;2023-05-19T06:27:33;99977.22;;;20.78;41.81
69982;BME280;57319;56.274;43.980;2023-05-19T06:29:59;99978.22;;;20.76;42.08
69982;BME280;57319;56.274;43.980;2023-05-19T06:32:25;99978.16;;;20.77;42.62
69982;BME280;57319;56.274;43.980;2023-05-19T06:34:50;99983.16;;;20.82;43.07
69982;BME280;57319;56.274;43.980;2023-05-19T06:37:21;99982.16;;;20.84;42.70
69982;BME280;57319;56.274;43.980;2023-05-19T06:39:49;99983.06;;;20.83;42.50
69982;BME280;57319;56.274;43.980;2023-05-19T06:42:19;99977.22;;;20.78;42.35
69982;BME280;57319;56.274;43.980;2023-05-19T06:44:48;99988.13;;;20.87;42.90
69982;BME280;57319;56.274;43.980;2023-05-19T06:47:14;99979.91;;;20.94;42.32
69982;BME280;57319;56.274;43.980;2023-05-19T06:49:40;99984.47;;;21.07;42.79
69982;BME280;57319;56.274;43.980;2023-05-19T06:52:05;99990.06;;;21.16;41.67
69982;BME280;57319;56.274;43.980;2023-05-19T06:54:31;99985.44;;;21.22;41.43
69982;BME280;57319;56.274;43.980;2023-05-19T06:56:56;99987.72;;;21.28;41.13
69982;BME280;57319;56.274;43.980;2023-05-19T06:59:22;99998.31;;;21.42;41.60
69982;BME280;57319;56.274;43.980;2023-05-19T07:01:48;99991.56;;;21.54;42.45
69982;BME280;57319;56.274;43.980;2023-05-19T07:04:13;99995.81;;;21.57;42.18
69982;BME280;57319;56.274;43.980;2023-05-19T07:06:39;99996.66;;;21.57;42.21
69982;BME280;57319;56.274;43.980;2023-05-19T07:09:05;99993.28;;;21.55;42.47
69982;BME280;57319;56.274;43.980;2023-05-19T07:11:31;99998.41;;;21.57;43.03
69982;BME280;57319;56.274;43.980;2023-05-19T07:13:56;99997.75;;;21.53;44.00
69982;BME280;57319;56.274;43.980;2023-05-19T07:16:22;100000.91;;;21.60;43.44
69982;BME280;57319;56.274;43.980;2023-05-19T07:18:47;100004.09;;;21.65;45.13
69982;BME280;57319;56.274;43.980;2023-05-19T07:21:13;99999.72;;;21.65;47.19
69982;BME280;57319;56.274;43.980;2023-05-19T07:23:39;100010.00;;;21.68;48.01
69982;BME280;57319;56.274;43.980;2023-05-19T07:26:04;100001.06;;;21.73;49.13
69982;BME280;57319;56.274;43.980;2023-05-19T07:28:30;100008.06;;;21.88;49.25
69982;BME280;57319;56.274;43.980;2023-05-19T07:30:56;100010.59;;;21.90;50.63
69982;BME280;57319;56.274;43.980;2023-05-19T07:33:21;100016.19;;;21.83;50.80
69982;BME280;57319;56.274;43.980;2023-05-19T07:35:47;100017.69;;;21.72;50.81
69982;BME280;57319;56.274;43.980;2023-05-19T07:38:13;100015.25;;;21.68;50.73
69982;BME280;57319;56.274;43.980;2023-05-19T07:40:38;100020.75;;;21.64;50.86
69982;BME280;57319;56.274;43.980;2023-05-19T07:43:04;100008.75;;;21.60;50.57
69982;BME280;57319;56.274;43.980;2023-05-19T07:45:30;100017.34;;;21.62;50.59
69982;BME280;57319;56.274;43.980;2023-05-19T07:47:55;100015.94;;;21.72;50.77
69982;BME280;57319;56.274;43.980;2023-05-19T07:50:21;100015.75;;;21.75;50.47
69982;BME280;57319;56.274;43.980;2023-05-19T07:52:47;100016.59;;;21.76;49.94
69982;BME280;57319;56.274;43.980;2023-05-19T07:55:12;100010.53;;;21.75;50.17
69982;BME280;57319;56.274;43.980;2023-05-19T07:57:39;100021.09;;;21.74;50.42
69982;BME280;57319;56.274;43.980;2023-05-19T08:00:05;100021.59;;;21.80;50.52
69982;BME280;57319;56.274;43.980;2023-05-19T08:02:32;100031.13;;;21.81;50.49
69982;BME280;57319;56.274;43.980;2023-05-19T08:04:58;100029.38;;;21.82;50.40
69982;BME280;57319;56.274;43.980;2023-05-19T08:07:24;100026.56;;;21.85;49.46
69982;BME280;57319;56.274;43.980;2023-05-19T08:09:49;100019.22;;;21.92;48.77
69982;BME280;57319;56.274;43.980;2023-05-19T08:12:15;100027.59;;;21.98;46.45
69982;BME280;57319;56.274;43.980;2023-05-19T08:14:40;100028.84;;;22.07;45.40
69982;BME280;57319;56.274;43.980;2023-05-19T08:17:06;100028.56;;;22.12;44.55
69982;BME280;57319;56.274;43.980;2023-05-19T08:19:32;100030.16;;;22.14;44.34
69982;BME280;57319;56.274;43.980;2023-05-19T08:21:57;100028.22;;;22.18;44.75
69982;BME280;57319;56.274;43.980;2023-05-19T08:24:26;100025.53;;;22.19;44.03
69982;BME280;57319;56.274;43.980;2023-05-19T08:26:54;100031.78;;;22.17;43.79
69982;BME280;57319;56.274;43.980;2023-05-19T08:29:20;100029.34;;;22.14;43.36
69982;BME280;57319;56.274;43.980;2023-05-19T08:31:45;100023.59;;;22.07;42.51
69982;BME280;57319;56.274;43.980;2023-05-19T08:34:11;100032.66;;;22.17;42.73
69982;BME280;57319;56.274;43.980;2023-05-19T08:36:37;100040.91;;;22.26;43.08
69982;BME280;57319;56.274;43.980;2023-05-19T08:39:03;100034.91;;;22.24;43.74
69982;BME280;57319;56.274;43.980;2023-05-19T08:41:28;100028.91;;;22.22;42.37
69982;BME280;57319;56.274;43.980;2023-05-19T08:43:54;100027.22;;;22.20;43.34
69982;BME280;57319;56.274;43.980;2023-05-19T08:46:20;100027.53;;;22.30;42.90
69982;BME280;57319;56.274;43.980;2023-05-19T08:48:46;100021.94;;;22.36;44.46
69982;BME280;57319;56.274;43.980;2023-05-19T08:51:38;100024.56;;;22.36;46.46
69982;BME280;57319;56.274;43.980;2023-05-19T08:54:29;100020.09;;;22.23;46.53
69982;BME280;57319;56.274;43.980;2023-05-19T08:56:59;100031.84;;;22.31;46.99
69982;BME280;57319;56.274;43.980;2023-05-19T08:59:25;100020.00;;;22.40;47.07
69982;BME280;57319;56.274;43.980;2023-05-19T09:01:52;100031.16;;;22.28;47.92
69982;BME280;57319;56.274;43.980;2023-05-19T09:04:19;100027.97;;;22.23;47.79
69982;BME280;57319;56.274;43.980;2023-05-19T09:06:45;100029.84;;;22.20;47.77
69982;BME280;57319;56.274;43.980;2023-05-19T09:09:11;100038.53;;;22.21;47.61
69982;BME280;57319;56.274;43.980;2023-05-19T09:11:36;100034.22;;;22.20;48.42
69982;BME280;57319;56.274;43.980;2023-05-19T09:14:03;100039.97;;;22.27;49.04
69982;BME280;57319;56.274;43.980;2023-05-19T09:16:29;100039.31;;;22.23;49.37
69982;BME280;57319;56.274;43.980;2023-05-19T09:18:57;100039.31;;;22.23;49.54
69982;BME280;57319;56.274;43.980;2023-05-19T09:21:27;100038.72;;;22.34;49.66
69982;BME280;57319;56.274;43.980;2023-05-19T09:24:05;100038.38;;;22.40;50.01
69982;BME280;57319;56.274;43.980;2023-05-19T09:26:39;100029.28;;;22.46;49.90
69982;BME280;57319;56.274;43.980;2023-05-19T09:29:15;100022.59;;;22.56;49.78
69982;BME280;57319;56.274;43.980;2023-05-19T09:31:51;100025.72;;;22.63;49.99
69982;BME280;57319;56.274;43.980;2023-05-19T09:34:17;100032.09;;;22.73;49.83
69982;BME280;57319;56.274;43.980;2023-05-19T09:36:46;100037.81;;;22.80;50.35
69982;BME280;57319;56.274;43.980;2023-05-19T09:39:22;100023.19;;;22.76;50.23
69982;BME280;57319;56.274;43.980;2023-05-19T09:41:52;100029.13;;;22.79;49.85
69982;BME280;57319;56.274;43.980;2023-05-19T09:44:24;100022.56;;;22.86;49.88
69982;BME280;57319;56.274;43.980;2023-05-19T09:46:54;100031.16;;;22.88;50.21
69982;BME280;57319;56.274;43.980;2023-05-19T09:49:21;100034.66;;;22.89;49.87
69982;BME280;57319;56.274;43.980;2023-05-19T09:54:21;100037.53;;;22.70;49.95
69982;BME280;57319;56.274;43.980;2023-05-19T09:56:56;100033.28;;;22.67;49.71
69982;BME280;57319;56.274;43.980;2023-05-19T09:59:24;100042.78;;;22.70;49.86
69982;BME280;57319;56.274;43.980;2023-05-19T10:01:55;100033.09;;;22.56;49.18
69982;BME280;57319;56.274;43.980;2023-05-19T10:04:25;100030.41;;;22.42;49.16
69982;BME280;57319;56.274;43.980;2023-05-19T10:06:53;100040.13;;;22.24;49.10
69982;BME280;57319;56.274;43.980;2023-05-19T10:09:24;100035.59;;;22.11;49.31
69982;BME280;57319;56.274;43.980;2023-05-19T10:11:54;100040.22;;;22.22;48.51
69982;BME280;57319;56.274;43.980;2023-05-19T10:14:27;100030.84;;;22.18;48.07
69982;BME280;57319;56.274;43.980;2023-05-19T10:16:57;100037.47;;;22.09;48.39
69982;BME280;57319;56.274;43.980;2023-05-19T10:19:25;100035.88;;;22.07;48.44
69982;BME280;57319;56.274;43.980;2023-05-19T10:21:52;100038.72;;;22.02;48.82
69982;BME280;57319;56.274;43.980;2023-05-19T10:24:18;100031.63;;;22.04;48.67
69982;BME280;57319;56.274;43.980;2023-05-19T10:26:47;100033.75;;;22.13;49.52
69982;BME280;57319;56.274;43.980;2023-05-19T10:29:17;100035.59;;;22.27;49.26
69982;BME280;57319;56.274;43.980;2023-05-19T10:31:46;100029.47;;;22.27;48.54
69982;BME280;57319;56.274;43.980;2023-05-19T10:36:58;100028.72;;;22.25;47.69
69982;BME280;57319;56.274;43.980;2023-05-19T10:39:33;100013.59;;;22.30;47.14
69982;BME280;57319;56.274;43.980;2023-05-19T10:42:37;100038.75;;;22.32;46.48
69982;BME280;57319;56.274;43.980;2023-05-19T10:45:14;100024.50;;;22.38;46.24
69982;BME280;57319;56.274;43.980;2023-05-19T10:47:43;100020.47;;;22.63;46.89
69982;BME280;57319;56.274;43.980;2023-05-19T10:50:09;100017.50;;;22.83;45.84
69982;BME280;57319;56.274;43.980;2023-05-19T10:52:36;100020.91;;;23.00;44.84
69982;BME280;57319;56.274;43.980;2023-05-19T10:55:02;100020.50;;;22.92;44.95
69982;BME280;57319;56.274;43.980;2023-05-19T10:57:29;100021.78;;;22.84;45.29
69982;BME280;57319;56.274;43.980;2023-05-19T11:00:02;100015.34;;;23.04;45.35
69982;BME280;57319;56.274;43.980;2023-05-19T11:02:40;100024.59;;;23.26;43.94
69982;BME280;57319;56.274;43.980;2023-05-19T11:05:10;100013.97;;;23.28;43.55
69982;BME280;57319;56.274;43.980;2023-05-19T11:08:04;100016.97;;;23.36;43.71
69982;BME280;57319;56.274;43.980;2023-05-19T11:10:32;100020.81;;;23.59;43.16
69982;BME280;57319;56.274;43.980;2023-05-19T11:12:58;100019.16;;;23.71;42.37
69982;BME280;57319;56.274;43.980;2023-05-19T11:15:26;100019.31;;;23.55;42.76
69982;BME280;57319;56.274;43.980;2023-05-19T11:17:53;100025.44;;;23.83;43.14
69982;BME280;57319;56.274;43.980;2023-05-19T11:20:23;100024.78;;;23.79;42.07
69982;BME280;57319;56.274;43.980;2023-05-19T11:23:09;100020.97;;;23.56;42.97
69982;BME280;57319;56.274;43.980;2023-05-19T11:25:48;100014.47;;;23.76;43.14
69982;BME280;57319;56.274;43.980;2023-05-19T11:28:17;100008.81;;;23.55;44.30
69982;BME280;57319;56.274;43.980;2023-05-19T11:30:50;100010.91;;;23.63;44.01
69982;BME280;57319;56.274;43.980;2023-05-19T11:33:19;100008.69;;;23.57;43.52
69982;BME280;57319;56.274;43.980;2023-05-19T11:35:46;100004.38;;;23.55;43.58
69982;BME280;57319;56.274;43.980;2023-05-19T11:38:14;100015.44;;;23.61;43.25
69982;BME280;57319;56.274;43.980;2023-05-19T11:40:42;100008.91;;;23.39;43.61
69982;BME280;57319;56.274;43.980;2023-05-19T11:43:09;100022.84;;;23.11;43.49
69982;BME280;57319;56.274;43.980;2023-05-19T11:45:35;100029.19;;;22.78;44.31
69982;BME280;57319;56.274;43.980;2023-05-19T11:48:01;100018.47;;;22.66;45.09
69982;BME280;57319;56.274;43.980;2023-05-19T11:50:30;100034.50;;;22.62;46.14
69982;BME280;57319;56.274;43.980;2023-05-19T11:52:58;100029.38;;;22.44;46.93
69982;BME280;57319;56.274;43.980;2023-05-19T11:55:24;100025.34;;;22.39;47.12
69982;BME280;57319;56.274;43.980;2023-05-19T11:58:01;100045.72;;;22.49;47.50
69982;BME280;57319;56.274;43.980;2023-05-19T12:00:29;100042.22;;;22.49;48.41
69982;BME280;57319;56.274;43.980;2023-05-19T12:02:56;100054.50;;;22.48;48.09
69982;BME280;57319;56.274;43.980;2023-05-19T12:05:25;100049.94;;;22.52;48.39
69982;BME280;57319;56.274;43.980;2023-05-19T12:07:51;100057.97;;;22.33;48.51
69982;BME280;57319;56.274;43.980;2023-05-19T12:10:22;100055.69;;;22.27;49.35
69982;BME280;57319;56.274;43.980;2023-05-19T12:12:49;100061.97;;;22.08;50.47
69982;BME280;57319;56.274;43.980;2023-05-19T12:15:20;100063.34;;;21.83;51.54
69982;BME280;57319;56.274;43.980;2023-05-19T12:17:57;100069.13;;;21.57;52.70
69982;BME280;57319;56.274;43.980;2023-05-19T12:20:24;100079.94;;;21.33;53.32
69982;BME280;57319;56.274;43.980;2023-05-19T12:22:51;100089.78;;;21.12;53.43
69982;BME280;57319;56.274;43.980;2023-05-19T12:25:17;100094.00;;;20.97;53.88
69982;BME280;57319;56.274;43.980;2023-05-19T12:27:44;100097.72;;;20.93;54.34
69982;BME280;57319;56.274;43.980;2023-05-19T12:30:10;100110.03;;;20.73;54.74
69982;BME280;57319;56.274;43.980;2023-05-19T12:32:37;100111.78;;;20.54;55.31
69982;BME280;57319;56.274;43.980;2023-05-19T12:35:04;100124.13;;;20.32;55.73
69982;BME280;57319;56.274;43.980;2023-05-19T12:37:31;100130.78;;;20.02;56.41
69982;BME280;57319;56.274;43.980;2023-05-19T12:40:01;100125.91;;;19.94;56.47
69982;BME280;57319;56.274;43.980;2023-05-19T12:42:30;100128.47;;;19.75;56.62
69982;BME280;57319;56.274;43.980;2023-05-19T12:44:58;100129.28;;;19.56;56.87
69982;BME280;57319;56.274;43.980;2023-05-19T12:47:32;100133.53;;;19.38;57.58
69982;BME280;57319;56.274;43.980;2023-05-19T12:52:41;100143.81;;;19.22;57.22
69982;BME280;57319;56.274;43.980;2023-05-19T12:55:07;100128.91;;;19.04;57.96
69982;BME280;57319;56.274;43.980;2023-05-19T12:57:36;100149.13;;;18.76;57.97
69982;BME280;57319;56.274;43.980;2023-05-19T13:03:03;100142.69;;;18.19;59.61
69982;BME280;57319;56.274;43.980;2023-05-19T13:05:31;100146.16;;;17.95;59.90
69982;BME280;57319;56.274;43.980;2023-05-19T13:10:38;100154.94;;;17.68;60.68
69982;BME280;57319;56.274;43.980;2023-05-19T13:13:04;100142.03;;;17.64;60.97
69982;BME280;57319;56.274;43.980;2023-05-19T13:15:32;100143.22;;;17.56;60.98
69982;BME280;57319;56.274;43.980;2023-05-19T13:18:04;100150.59;;;17.43;61.46